createdAt,value
2023-03-22T00:00:15.363Z,18.72
2023-03-22T00:02:45.456Z,18.72
2023-03-22T00:05:14.120Z,18.73
2023-03-22T00:07:43.548Z,18.72
2023-03-22T00:10:12.431Z,18.72
2023-03-22T00:12:40.848Z,18.73
2023-03-22T00:15:11.266Z,18.75
2023-03-22T00:17:39.697Z,18.76
2023-03-22T00:20:12.919Z,18.75
2023-03-22T00:22:41.556Z,18.75
2023-03-22T00:25:11.040Z,18.74
2023-03-22T00:27:39.631Z,18.73
2023-03-22T00:30:10.750Z,18.71
2023-03-22T00:32:40.087Z,18.70
2023-03-22T00:35:12.178Z,18.66
2023-03-22T00:37:40.709Z,18.62
2023-03-22T00:40:13.047Z,18.58
2023-03-22T00:42:43.094Z,18.55
2023-03-22T00:45:14.924Z,18.51
2023-03-22T00:47:43.546Z,18.49
2023-03-22T00:50:13.765Z,18.45
2023-03-22T00:52:42.190Z,18.42
2023-03-22T00:55:10.931Z,18.39
2023-03-22T00:57:39.387Z,18.34
2023-03-22T01:00:13.731Z,18.31
2023-03-22T01:02:43.040Z,18.30
2023-03-22T01:05:16.072Z,18.29
2023-03-22T01:07:44.888Z,18.29
2023-03-22T01:10:14.119Z,18.28
2023-03-22T01:12:42.539Z,18.27
2023-03-22T01:15:12.466Z,18.26
2023-03-22T01:17:40.881Z,18.24
2023-03-22T01:20:13.079Z,18.22
2023-03-22T01:22:41.672Z,18.22
2023-03-22T01:25:11.335Z,18.20
2023-03-22T01:27:39.814Z,18.20
2023-03-22T01:30:11.652Z,18.19
2023-03-22T01:32:40.850Z,18.19
2023-03-22T01:35:10.532Z,18.19
2023-03-22T01:37:40.608Z,18.19
2023-03-22T01:40:11.739Z,18.20
2023-03-22T01:42:40.335Z,18.21
2023-03-22T01:45:41.868Z,18.19
2023-03-22T01:48:21.216Z,18.22
2023-03-22T01:51:02.988Z,18.23
2023-03-22T01:53:38.154Z,18.25
2023-03-22T01:56:08.507Z,18.27
2023-03-22T01:58:39.309Z,18.30
2023-03-22T02:01:11.087Z,18.29
2023-03-22T02:03:48.972Z,18.32
2023-03-22T02:06:17.682Z,18.34
2023-03-22T02:08:47.827Z,18.34
2023-03-22T02:11:20.905Z,18.34
2023-03-22T02:14:31.173Z,18.34
2023-03-22T02:17:20.638Z,18.34
2023-03-22T02:20:31.474Z,18.33
2023-03-22T02:23:28.144Z,18.34
2023-03-22T02:26:39.364Z,18.33
2023-03-22T02:29:14.130Z,18.35
2023-03-22T02:32:10.320Z,18.33
2023-03-22T02:35:27.456Z,18.31
2023-03-22T02:39:01.639Z,18.25
2023-03-22T02:41:43.831Z,18.27
2023-03-22T02:44:25.750Z,18.27
2023-03-22T02:47:04.044Z,18.26
2023-03-22T02:49:38.652Z,18.28
2023-03-22T02:52:17.385Z,18.28
2023-03-22T02:54:56.756Z,18.29
2023-03-22T02:57:34.989Z,18.30
2023-03-22T03:00:10.561Z,18.31
2023-03-22T03:02:41.946Z,18.32
2023-03-22T03:05:14.685Z,18.31
2023-03-22T03:07:50.503Z,18.32
2023-03-22T03:10:22.004Z,18.31
2023-03-22T03:12:50.575Z,18.33
2023-03-22T03:15:21.580Z,18.34
2023-03-22T03:18:09.997Z,18.35
2023-03-22T03:20:52.358Z,18.36
2023-03-22T03:23:33.632Z,18.40
2023-03-22T03:26:10.229Z,18.42
2023-03-22T03:28:45.071Z,18.44
2023-03-22T03:31:27.132Z,18.45
2023-03-22T03:34:06.731Z,18.48
2023-03-22T03:36:38.821Z,18.50
2023-03-22T03:39:13.685Z,18.49
2023-03-22T03:41:45.340Z,18.51
2023-03-22T03:44:14.772Z,18.53
2023-03-22T03:46:45.433Z,18.53
2023-03-22T03:49:16.465Z,18.53
2023-03-22T03:51:50.619Z,18.51
2023-03-22T03:54:19.363Z,18.52
2023-03-22T03:56:49.512Z,18.51
2023-03-22T03:59:18.783Z,18.49
2023-03-22T04:01:51.677Z,18.50
2023-03-22T04:04:26.342Z,18.48
2023-03-22T04:06:56.880Z,18.47
2023-03-22T04:09:26.948Z,18.45
2023-03-22T04:11:57.872Z,18.43
2023-03-22T04:14:27.563Z,18.42
2023-03-22T04:16:57.148Z,18.41
2023-03-22T04:19:26.059Z,18.40
2023-03-22T04:21:54.833Z,18.39
2023-03-22T04:24:23.812Z,18.38
2023-03-22T04:26:52.676Z,18.35
2023-03-22T04:29:23.216Z,18.33
2023-03-22T04:31:53.137Z,18.34
2023-03-22T04:34:21.601Z,18.33
2023-03-22T04:36:50.762Z,18.32
2023-03-22T04:39:19.445Z,18.32
2023-03-22T04:41:48.108Z,18.32
2023-03-22T04:44:16.592Z,18.30
2023-03-22T04:46:46.474Z,18.29
2023-03-22T04:49:15.144Z,18.29
2023-03-22T04:51:43.774Z,18.30
2023-03-22T04:54:12.233Z,18.27
2023-03-22T04:56:40.810Z,18.28
2023-03-22T04:59:10.861Z,18.28
2023-03-22T05:01:40.825Z,18.27
2023-03-22T05:04:10.795Z,18.26
2023-03-22T05:06:39.201Z,18.26
2023-03-22T05:09:08.155Z,18.25
2023-03-22T05:11:36.624Z,18.23
2023-03-22T05:14:05.794Z,18.20
2023-03-22T05:16:34.484Z,18.18
2023-03-22T05:19:03.098Z,18.15
2023-03-22T05:21:36.941Z,18.12
2023-03-22T05:24:06.110Z,18.10
2023-03-22T05:26:38.055Z,18.10
2023-03-22T05:29:06.876Z,18.10
2023-03-22T05:31:35.448Z,18.13
2023-03-22T05:34:03.927Z,18.16
2023-03-22T05:36:36.524Z,18.19
2023-03-22T05:39:06.077Z,18.20
2023-03-22T05:41:36.642Z,18.24
2023-03-22T05:44:06.155Z,18.27
2023-03-22T05:46:34.583Z,18.31
2023-03-22T05:49:03.049Z,18.35
2023-03-22T05:51:31.455Z,18.40
2023-03-22T05:54:01.383Z,18.44
2023-03-22T05:56:29.822Z,18.51
2023-03-22T05:58:58.431Z,18.56
2023-03-22T06:01:26.886Z,18.63
2023-03-22T06:03:55.346Z,18.70
2023-03-22T06:06:24.021Z,18.78
2023-03-22T06:08:52.565Z,18.86
2023-03-22T06:11:22.766Z,18.94
2023-03-22T06:13:51.227Z,19.05
2023-03-22T06:16:19.855Z,19.16
2023-03-22T06:18:48.394Z,19.28
2023-03-22T06:21:16.916Z,19.40
2023-03-22T06:23:45.604Z,19.52
2023-03-22T06:26:14.086Z,19.66
2023-03-22T06:28:43.936Z,19.76
2023-03-22T06:31:12.506Z,19.85
2023-03-22T06:33:40.981Z,19.94
2023-03-22T06:36:10.281Z,20.02
2023-03-22T06:38:38.747Z,20.11
2023-03-22T06:41:07.527Z,20.17
2023-03-22T06:43:35.964Z,20.23
2023-03-22T06:46:06.434Z,20.28
2023-03-22T06:48:34.934Z,20.35
2023-03-22T06:51:03.496Z,20.38
2023-03-22T06:53:31.955Z,20.40
2023-03-22T06:56:00.395Z,20.43
2023-03-22T06:58:29.072Z,20.49
2023-03-22T07:00:58.075Z,20.57
2023-03-22T07:03:28.007Z,20.67
2023-03-22T07:06:02.907Z,20.74
2023-03-22T07:08:31.505Z,20.84
2023-03-22T07:10:59.970Z,20.91
2023-03-22T07:13:28.654Z,20.97
2023-03-22T07:15:57.719Z,21.04
2023-03-22T07:18:29.208Z,21.10
2023-03-22T07:20:57.782Z,21.16
2023-03-22T07:23:26.542Z,21.20
2023-03-22T07:25:56.042Z,21.18
2023-03-22T07:28:24.912Z,21.16
2023-03-22T07:31:02.268Z,21.12
2023-03-22T07:33:32.061Z,21.14
2023-03-22T07:36:00.916Z,21.17
2023-03-22T07:38:29.384Z,21.25
2023-03-22T07:40:57.843Z,21.34
2023-03-22T07:43:26.447Z,21.50
2023-03-22T07:45:55.060Z,21.75
2023-03-22T07:48:24.728Z,22.08
2023-03-22T07:50:57.912Z,22.46
2023-03-22T07:53:26.677Z,22.84
2023-03-22T07:55:55.172Z,23.12
2023-03-22T07:58:23.616Z,23.31
2023-03-22T08:00:52.076Z,23.43
2023-03-22T08:03:22.306Z,23.50
2023-03-22T08:05:51.752Z,23.56
2023-03-22T08:08:21.829Z,23.64
2023-03-22T08:10:51.858Z,23.67
2023-03-22T08:13:20.466Z,23.72
2023-03-22T08:15:48.921Z,23.76
2023-03-22T08:18:17.339Z,23.79
2023-03-22T08:20:46.293Z,23.80
2023-03-22T08:23:16.191Z,23.87
2023-03-22T08:25:46.145Z,23.95
2023-03-22T08:28:15.916Z,24.04
2023-03-22T08:30:44.988Z,24.09
2023-03-22T08:33:14.007Z,24.15
2023-03-22T08:35:43.266Z,24.23
2023-03-22T08:38:11.733Z,24.29
2023-03-22T08:40:40.271Z,24.34
2023-03-22T08:43:10.104Z,24.34
2023-03-22T08:45:39.093Z,24.34
2023-03-22T08:48:08.265Z,24.35
2023-03-22T08:50:36.837Z,24.35
2023-03-22T08:53:05.735Z,24.37
2023-03-22T08:55:37.658Z,24.38
2023-03-22T08:58:06.513Z,24.37
2023-03-22T09:00:48.214Z,24.32
2023-03-22T09:03:17.828Z,24.25
2023-03-22T09:05:46.423Z,24.20
2023-03-22T09:08:19.122Z,24.20
2023-03-22T09:10:51.677Z,24.19
2023-03-22T09:13:21.029Z,24.16
2023-03-22T09:15:53.099Z,24.12
2023-03-22T09:18:22.469Z,24.14
2023-03-22T09:20:51.486Z,24.15
2023-03-22T09:23:20.177Z,24.17
2023-03-22T09:25:50.071Z,24.23
2023-03-22T09:28:19.264Z,24.31
2023-03-22T09:30:47.794Z,24.38
2023-03-22T09:33:17.686Z,24.43
2023-03-22T09:35:46.468Z,24.43
2023-03-22T09:38:16.192Z,24.41
2023-03-22T09:40:53.472Z,24.47
2023-03-22T09:43:22.842Z,24.57
2023-03-22T09:45:53.179Z,24.64
2023-03-22T09:48:29.955Z,24.72
2023-03-22T09:50:58.942Z,24.77
2023-03-22T09:53:30.823Z,24.80
2023-03-22T09:56:08.296Z,24.81
2023-03-22T09:58:44.336Z,24.80
2023-03-22T10:01:26.009Z,24.81
2023-03-22T10:04:31.187Z,24.84
2023-03-22T10:07:11.793Z,24.97
2023-03-22T10:09:48.742Z,25.11
2023-03-22T10:12:26.369Z,25.25
2023-03-22T10:15:06.753Z,25.36
2023-03-22T10:17:37.712Z,25.57
2023-03-22T10:20:19.094Z,25.77
2023-03-22T10:22:52.773Z,25.97
2023-03-22T10:25:32.839Z,26.07
2023-03-22T10:28:01.340Z,26.16
2023-03-22T10:30:42.049Z,26.20
2023-03-22T10:33:17.846Z,26.26
2023-03-22T10:35:48.653Z,26.31
2023-03-22T10:38:25.330Z,26.36
2023-03-22T10:40:56.754Z,26.41
2023-03-22T10:43:33.144Z,26.49
2023-03-22T10:46:05.435Z,26.58
2023-03-22T10:48:37.584Z,26.60
2023-03-22T10:51:08.992Z,26.55
2023-03-22T10:53:41.488Z,26.58
2023-03-22T10:56:15.762Z,26.65
2023-03-22T10:58:44.353Z,26.89
2023-03-22T11:01:15.167Z,27.19
2023-03-22T11:03:49.815Z,27.48
2023-03-22T11:06:24.274Z,27.80
2023-03-22T11:08:54.885Z,28.08
2023-03-22T11:11:26.794Z,28.21
2023-03-22T11:14:01.834Z,28.24
2023-03-22T11:16:31.905Z,28.20
2023-03-22T11:19:03.335Z,28.19
2023-03-22T11:21:35.133Z,28.39
2023-03-22T11:24:08.250Z,28.58
2023-03-22T11:26:40.841Z,28.62
2023-03-22T11:29:17.613Z,28.51
2023-03-22T11:31:59.633Z,28.53
2023-03-22T11:34:31.758Z,28.67
2023-03-22T11:37:03.201Z,28.80
2023-03-22T11:39:31.694Z,29.17
2023-03-22T11:42:03.967Z,29.68
2023-03-22T11:44:38.079Z,30.34
2023-03-22T11:47:13.647Z,31.11
2023-03-22T11:49:48.160Z,31.89
2023-03-22T11:52:23.133Z,32.54
2023-03-22T11:54:52.745Z,32.89
2023-03-22T11:57:26.709Z,33.05
2023-03-22T12:00:01.838Z,33.30
2023-03-22T12:02:33.841Z,33.56
2023-03-22T12:05:11.833Z,33.76
2023-03-22T12:07:42.620Z,34.02
2023-03-22T12:10:16.946Z,34.18
2023-03-22T12:12:52.458Z,34.52
2023-03-22T12:15:25.385Z,34.97
2023-03-22T12:18:02.115Z,35.29
2023-03-22T12:20:42.020Z,35.34
2023-03-22T12:23:21.167Z,35.35
2023-03-22T12:25:54.895Z,35.51
2023-03-22T12:28:29.781Z,35.66
2023-03-22T12:31:00.319Z,35.80
2023-03-22T12:33:32.235Z,35.71
2023-03-22T12:36:03.829Z,35.42
2023-03-22T12:38:41.724Z,35.13
2023-03-22T12:41:16.191Z,34.79
2023-03-22T12:43:53.568Z,34.64
2023-03-22T12:46:27.899Z,34.87
2023-03-22T12:49:02.428Z,35.16
2023-03-22T12:51:30.891Z,35.62
2023-03-22T12:54:02.427Z,35.90
2023-03-22T12:56:39.811Z,35.91
2023-03-22T12:59:17.913Z,35.84
2023-03-22T13:01:53.717Z,35.86
2023-03-22T13:04:46.943Z,35.62
2023-03-22T13:07:32.128Z,35.33
2023-03-22T13:10:23.293Z,35.24
2023-03-22T13:13:15.627Z,34.68
2023-03-22T13:16:01.643Z,34.10
2023-03-22T13:18:39.389Z,33.59
2023-03-22T13:21:14.328Z,32.99
2023-03-22T13:24:00.631Z,32.42
2023-03-22T13:26:38.082Z,32.09
2023-03-22T13:29:17.358Z,32.15
2023-03-22T13:31:55.080Z,32.17
2023-03-22T13:34:32.578Z,32.04
2023-03-22T13:37:03.673Z,32.07
2023-03-22T13:39:36.100Z,32.17
2023-03-22T13:42:19.387Z,32.17
2023-03-22T13:44:58.683Z,32.28
2023-03-22T13:47:37.950Z,32.41
2023-03-22T13:50:17.187Z,32.61
2023-03-22T13:52:55.682Z,32.76
2023-03-22T13:55:58.257Z,32.61
2023-03-22T13:58:53.086Z,32.27
2023-03-22T14:01:30.810Z,31.89
2023-03-22T14:04:02.403Z,31.48
2023-03-22T14:06:34.844Z,31.12
2023-03-22T14:09:13.388Z,30.90
2023-03-22T14:11:48.840Z,30.74
2023-03-22T14:14:23.832Z,30.44
2023-03-22T14:17:00.101Z,30.17
2023-03-22T14:19:33.053Z,29.93
